Time;durP1;ratioP1;P1;durP2;ratioP2;P2;SDS_P1;SDS_P2;PMS_P1;PMS_P2;Temp;Humidity;BMP_temperature;BMP_pressure;BME280_temperature;BME280_humidity;BME280_pressure;Samples;Min_cycle;Max_cycle;Signal;HPM_P1;HPM_P2
2021/12/30 00:00:02;;;;;;;132.57;49.33;;;;;;;-0.86;93.06;99820.96;1731174;81;25637;-75
2021/12/30 00:02:30;;;;;;;125.00;49.03;;;;;;;-0.84;93.13;99822.31;1759840;81;27310;-76
2021/12/30 00:04:58;;;;;;;137.97;49.95;;;;;;;-0.85;93.21;99829.19;1759964;81;25629;-76
2021/12/30 00:07:25;;;;;;;128.55;51.23;;;;;;;-0.80;93.26;99835.90;1760273;81;25432;-76
2021/12/30 00:09:52;;;;;;;126.85;49.45;;;;;;;-0.77;93.17;99833.59;1760189;81;26172;-75
2021/12/30 00:12:18;;;;;;;134.47;52.15;;;;;;;-0.73;93.24;99835.22;1760348;81;25660;-76
2021/12/30 00:14:45;;;;;;;139.07;49.93;;;;;;;-0.72;93.31;99832.83;1760295;81;28131;-76
2021/12/30 00:17:12;;;;;;;133.85;50.48;;;;;;;-0.70;93.16;99836.57;1760222;81;25764;-77
2021/12/30 00:19:38;;;;;;;132.18;52.23;;;;;;;-0.68;93.19;99837.12;1760303;81;25620;-76
2021/12/30 00:22:05;;;;;;;126.10;48.87;;;;;;;-0.66;93.16;99835.05;1760430;81;25717;-77
2021/12/30 00:24:32;;;;;;;126.85;51.15;;;;;;;-0.65;93.17;99832.66;1761429;81;25577;-76
2021/12/30 00:26:59;;;;;;;141.60;50.30;;;;;;;-0.63;93.21;99833.20;1761293;81;27326;-76
2021/12/30 00:29:25;;;;;;;146.55;53.58;;;;;;;-0.62;93.15;99839.61;1761005;81;25296;-76
2021/12/30 00:31:52;;;;;;;147.68;53.75;;;;;;;-0.59;93.29;99837.00;1760865;81;25435;-76
2021/12/30 00:34:18;;;;;;;150.47;54.50;;;;;;;-0.59;93.34;99829.02;1760404;81;25673;-76
2021/12/30 00:36:45;;;;;;;136.60;52.95;;;;;;;-0.57;93.31;99834.36;1760287;81;25624;-76
2021/12/30 00:39:12;;;;;;;148.32;51.98;;;;;;;-0.56;93.46;99836.51;1760386;81;27832;-76
2021/12/30 00:41:38;;;;;;;141.57;52.10;;;;;;;-0.54;93.53;99837.06;1760289;81;25527;-77
2021/12/30 00:44:07;;;;;;;141.05;52.00;;;;;;;-0.53;93.43;99842.63;1760369;81;25416;-76
2021/12/30 00:46:34;;;;;;;148.90;54.00;;;;;;;-0.51;93.50;99843.22;1760220;81;26332;-76
2021/12/30 00:49:01;;;;;;;144.22;52.43;;;;;;;-0.48;93.48;99844.03;1760339;81;25439;-76
2021/12/30 00:51:29;;;;;;;145.43;54.35;;;;;;;-0.47;93.50;99841.66;1760255;81;27083;-77
2021/12/30 00:53:56;;;;;;;143.10;51.30;;;;;;;-0.47;93.53;99845.65;1760295;81;25218;-77
2021/12/30 00:56:22;;;;;;;145.85;55.60;;;;;;;-0.47;93.57;99846.97;1760392;81;25540;-77
2021/12/30 00:58:49;;;;;;;134.65;50.65;;;;;;;-0.46;93.63;99846.44;1760373;81;25613;-77
2021/12/30 01:01:16;;;;;;;142.25;53.70;;;;;;;-0.45;93.58;99846.73;1760397;81;25611;-76
2021/12/30 01:03:43;;;;;;;147.13;52.67;;;;;;;-0.45;93.72;99843.54;1760474;81;27400;-78
2021/12/30 01:06:09;;;;;;;141.75;54.20;;;;;;;-0.46;93.83;99831.83;1760249;81;25536;-77
2021/12/30 01:08:36;;;;;;;140.43;52.25;;;;;;;-0.46;93.77;99831.33;1760333;81;25600;-77
2021/12/30 01:11:07;;;;;;;136.72;52.17;;;;;;;-0.42;93.93;99830.30;1760350;81;26230;-77
2021/12/30 01:13:32;;;;;;;151.80;53.63;;;;;;;-0.39;93.94;99823.17;1759964;81;25616;-77
2021/12/30 01:16:01;;;;;;;141.73;53.70;;;;;;;-0.40;94.08;99823.67;1761062;81;27341;-76
2021/12/30 01:21:13;;;;;;;145.82;54.67;;;;;;;-0.36;94.08;99816.54;1671165;85;25226;-76
2021/12/30 01:23:42;;;;;;;137.80;51.15;;;;;;;-0.34;94.12;99814.43;1670596;84;25621;-76
2021/12/30 01:26:09;;;;;;;162.10;55.07;;;;;;;-0.33;94.18;99814.19;1668550;86;25686;-76
2021/12/30 01:28:36;;;;;;;134.87;53.65;;;;;;;-0.32;94.40;99810.99;1668269;86;27516;-77
2021/12/30 01:31:04;;;;;;;149.70;53.52;;;;;;;-0.30;94.31;99811.57;1668265;86;25666;-78
2021/12/30 01:33:30;;;;;;;138.85;53.63;;;;;;;-0.29;94.46;99818.47;1668219;86;25507;-77
2021/12/30 01:35:57;;;;;;;141.65;54.98;;;;;;;-0.28;94.43;99816.91;1668267;86;26258;-76
2021/12/30 01:38:24;;;;;;;142.30;53.25;;;;;;;-0.26;94.56;99816.13;1668323;86;25471;-77
2021/12/30 01:40:55;;;;;;;143.70;53.90;;;;;;;-0.24;94.63;99824.67;1664553;86;27914;-76
2021/12/30 01:43:22;;;;;;;140.52;51.55;;;;;;;-0.22;94.55;99837.72;1668245;86;25705;-77
2021/12/30 01:45:48;;;;;;;139.77;53.25;;;;;;;-0.21;94.75;99840.64;1668410;86;25682;-77
2021/12/30 01:48:15;;;;;;;146.70;51.85;;;;;;;-0.18;94.78;99842.02;1668316;86;25635;-76
2021/12/30 01:50:42;;;;;;;137.57;52.03;;;;;;;-0.16;94.82;99849.20;1668426;86;25471;-77
2021/12/30 01:53:10;;;;;;;148.90;55.83;;;;;;;-0.14;94.99;99848.42;1668374;86;27315;-77
2021/12/30 01:55:41;;;;;;;124.80;50.65;;;;;;;-0.12;94.93;99838.34;1668268;86;25682;-77
2021/12/30 01:58:08;;;;;;;133.80;52.13;;;;;;;-0.12;94.96;99832.52;1706100;81;25924;-77
2021/12/30 02:00:39;;;;;;;141.57;54.27;;;;;;;-0.08;94.92;99833.61;1732766;81;25630;-77
2021/12/30 02:03:06;;;;;;;135.82;51.92;;;;;;;-0.07;94.98;99828.58;1760413;81;25640;-77
2021/12/30 02:05:34;;;;;;;129.75;50.70;;;;;;;-0.05;95.20;99827.80;1760325;81;28270;-77
2021/12/30 02:08:00;;;;;;;141.55;52.43;;;;;;;-0.05;95.33;99817.16;1760382;81;25418;-77
2021/12/30 02:10:27;;;;;;;125.67;50.25;;;;;;;-0.02;95.35;99823.31;1760413;81;25696;-77
2021/12/30 02:12:54;;;;;;;131.93;52.25;;;;;;;-0.01;95.25;99822.25;1760391;81;26145;-77
2021/12/30 02:15:20;;;;;;;143.75;51.83;;;;;;;0.01;95.20;99822.00;1731916;81;25539;-78
2021/12/30 02:17:49;;;;;;;134.15;51.65;;;;;;;0.03;95.36;99822.55;1761212;81;28246;-78
2021/12/30 02:20:47;;;;;;;148.40;50.83;;;;;;;0.04;95.29;99825.49;1760485;81;25540;-77
2021/12/30 02:23:19;;;;;;;129.95;51.85;;;;;;;0.07;95.42;99822.84;1760054;81;25774;-77
2021/12/30 02:25:48;;;;;;;132.00;51.53;;;;;;;0.09;95.40;99822.09;1727441;81;25642;-78
2021/12/30 02:28:18;;;;;;;137.32;52.40;;;;;;;0.09;95.39;99821.55;1727605;83;25168;-77
2021/12/30 02:30:46;;;;;;;141.10;51.90;;;;;;;0.09;95.59;99826.88;1728301;83;27908;-78
2021/12/30 02:33:13;;;;;;;141.03;54.20;;;;;;;0.12;95.51;99822.39;1728054;83;25628;-78
2021/12/30 02:35:40;;;;;;;131.22;51.33;;;;;;;0.14;95.48;99813.62;1727906;83;25403;-78
2021/12/30 02:38:08;;;;;;;130.45;51.42;;;;;;;0.16;95.52;99822.69;1728119;83;25643;-78
2021/12/30 02:40:40;;;;;;;127.65;51.58;;;;;;;0.17;95.44;99822.95;1728097;82;25232;-78
2021/12/30 02:43:14;;;;;;;136.18;51.68;;;;;;;0.19;95.46;99823.52;1727378;83;27209;-78
2021/12/30 02:45:42;;;;;;;134.90;48.92;;;;;;;0.21;95.54;99825.94;1728063;82;25401;-78
2021/12/30 02:48:15;;;;;;;141.47;51.30;;;;;;;0.21;95.49;99825.94;1728293;83;25634;-77
2021/12/30 02:50:43;;;;;;;130.18;51.13;;;;;;;0.22;95.53;99824.33;1702565;83;25682;-77
2021/12/30 02:53:12;;;;;;;116.30;39.60;;;;;;;0.24;95.44;99824.08;1727512;83;25632;-78
2021/12/30 02:55:41;;;;;;;142.28;52.88;;;;;;;0.25;95.63;99827.02;1727465;83;27338;-78
2021/12/30 02:58:08;;;;;;;137.12;49.23;;;;;;;0.26;95.69;99829.97;1727486;83;25412;-78
2021/12/30 03:00:38;;;;;;;129.23;52.40;;;;;;;0.26;95.66;99828.64;1727473;82;25577;-78
2021/12/30 03:03:05;;;;;;;140.25;50.67;;;;;;;0.29;95.68;99833.44;1727530;83;25623;-78
2021/12/30 03:05:33;;;;;;;139.43;53.05;;;;;;;0.29;95.65;99831.59;1727340;83;25387;-78
2021/12/30 03:08:00;;;;;;;135.85;51.58;;;;;;;0.31;95.74;99830.81;1727413;82;28053;-78
2021/12/30 03:10:28;;;;;;;136.10;51.30;;;;;;;0.32;95.67;99827.11;1727233;83;26799;-78
2021/12/30 03:12:58;;;;;;;131.35;52.93;;;;;;;0.34;95.70;99828.98;1727303;83;25587;-78
2021/12/30 03:15:29;;;;;;;139.65;52.50;;;;;;;0.35;95.63;99825.25;1727347;82;25621;-77
2021/12/30 03:17:55;;;;;;;136.28;53.73;;;;;;;0.38;95.68;99831.14;1727216;83;25463;-77
2021/12/30 03:20:22;;;;;;;136.12;52.05;;;;;;;0.39;95.77;99828.20;1727215;83;27383;-78
2021/12/30 03:22:48;;;;;;;136.95;52.78;;;;;;;0.39;95.78;99825.55;1727142;83;25671;-78
2021/12/30 03:25:16;;;;;;;136.82;52.23;;;;;;;0.41;95.74;99830.11;1738694;80;25544;-78
2021/12/30 03:27:45;;;;;;;142.25;53.40;;;;;;;0.42;95.79;99825.05;1745718;82;25597;-79
2021/12/30 03:30:15;;;;;;;144.28;55.83;;;;;;;0.42;95.95;99822.92;1746001;82;25549;-78
2021/12/30 03:32:41;;;;;;;133.97;51.00;;;;;;;0.43;96.01;99825.87;1746783;82;27961;-78
2021/12/30 03:35:10;;;;;;;133.37;52.58;;;;;;;0.43;95.96;99829.33;1747044;82;25398;-78
2021/12/30 03:37:37;;;;;;;138.30;54.77;;;;;;;0.45;95.94;99835.19;1747651;82;25599;-78
2021/12/30 03:40:08;;;;;;;142.03;54.45;;;;;;;0.45;96.04;99841.84;1748024;82;25651;-78
2021/12/30 03:42:35;;;;;;;137.07;51.23;;;;;;;0.47;96.06;99847.70;1747611;82;25191;-79
2021/12/30 03:45:03;;;;;;;148.38;54.90;;;;;;;0.50;96.08;99849.08;1747977;82;27401;-78
2021/12/30 03:47:30;;;;;;;133.70;55.43;;;;;;;0.51;96.19;99846.67;1748674;82;25198;-78
2021/12/30 03:49:58;;;;;;;138.65;54.03;;;;;;;0.53;96.03;99853.36;1748631;81;25280;-78
2021/12/30 03:52:30;;;;;;;143.35;54.70;;;;;;;0.54;95.98;99848.83;1747885;80;25654;-76
2021/12/30 03:54:53;;;;;;;131.50;52.53;;;;;;;0.57;95.95;99851.53;1747147;80;25244;-76
2021/12/30 03:57:20;;;;;;;137.03;53.38;;;;;;;0.58;95.94;99849.95;1748324;80;27309;-77
2021/12/30 03:59:46;;;;;;;131.70;54.55;;;;;;;0.59;95.94;99852.88;1748670;82;25224;-78
2021/12/30 04:02:13;;;;;;;138.95;54.80;;;;;;;0.61;96.07;99857.41;1748506;82;25182;-78
2021/12/30 04:04:39;;;;;;;145.07;57.40;;;;;;;0.60;95.98;99856.36;1748681;81;25583;-79
2021/12/30 04:07:06;;;;;;;136.90;56.73;;;;;;;0.62;96.08;99863.55;1748567;82;25213;-78
2021/12/30 04:09:32;;;;;;;136.85;54.70;;;;;;;0.62;96.01;99863.02;1747879;80;27153;-77
2021/12/30 04:11:59;;;;;;;131.12;51.98;;;;;;;0.63;95.97;99871.29;1747351;80;25410;-77
2021/12/30 04:14:26;;;;;;;127.17;53.45;;;;;;;0.62;95.99;99867.02;1724397;81;25371;-77
2021/12/30 04:16:54;;;;;;;137.30;54.38;;;;;;;0.63;96.08;99866.47;1747691;80;25640;-77
2021/12/30 04:19:21;;;;;;;133.47;55.40;;;;;;;0.64;96.18;99872.08;1748003;80;25347;-77
2021/12/30 04:21:47;;;;;;;136.20;54.67;;;;;;;0.65;96.52;99873.70;1748529;80;27420;-78
2021/12/30 04:24:14;;;;;;;133.95;53.68;;;;;;;0.62;96.19;99873.66;1746879;81;25585;-78
2021/12/30 04:26:40;;;;;;;123.33;52.80;;;;;;;0.64;96.17;99880.86;1730180;82;25186;-78
2021/12/30 04:29:07;;;;;;;133.50;52.70;;;;;;;0.66;96.22;99891.27;1729814;83;25707;-79
2021/12/30 04:31:33;;;;;;;138.45;55.12;;;;;;;0.66;96.28;99898.71;1729508;83;25260;-79
2021/12/30 04:34:00;;;;;;;133.40;54.67;;;;;;;0.68;96.35;99906.45;1729120;83;27332;-79
2021/12/30 04:36:27;;;;;;;130.25;55.88;;;;;;;0.69;96.32;99906.73;1728830;82;25678;-79
2021/12/30 04:38:53;;;;;;;141.20;55.83;;;;;;;0.70;96.22;99909.14;1728928;83;25618;-79
2021/12/30 04:41:20;;;;;;;134.82;55.48;;;;;;;0.71;96.19;99896.63;1728784;82;25600;-79
2021/12/30 04:43:46;;;;;;;143.60;54.93;;;;;;;0.72;96.13;99891.59;1728999;82;25431;-79
2021/12/30 04:46:13;;;;;;;144.15;54.25;;;;;;;0.72;96.08;99892.92;1729129;83;28020;-79
2021/12/30 04:48:40;;;;;;;142.65;56.28;;;;;;;0.73;96.15;99891.34;1729161;83;25300;-79
2021/12/30 04:51:06;;;;;;;134.55;54.38;;;;;;;0.73;96.05;99897.17;1729287;83;25189;-80
2021/12/30 04:53:33;;;;;;;144.75;56.25;;;;;;;0.73;96.15;99899.33;1729230;83;25661;-80
2021/12/30 04:55:59;;;;;;;145.87;57.25;;;;;;;0.74;96.15;99892.93;1729263;82;25668;-80
2021/12/30 04:58:26;;;;;;;138.45;52.78;;;;;;;0.75;96.22;99893.75;1729105;83;27346;-80
2021/12/30 05:00:52;;;;;;;140.03;56.55;;;;;;;0.77;96.24;99890.81;1729228;83;25347;-80
2021/12/30 05:03:21;;;;;;;139.65;54.70;;;;;;;0.79;96.24;99890.05;1729321;82;25758;-80
2021/12/30 05:05:51;;;;;;;137.57;54.05;;;;;;;0.78;96.23;99884.44;1729607;82;25708;-80
2021/12/30 05:08:22;;;;;;;140.20;54.88;;;;;;;0.80;96.26;99886.31;1729227;82;25640;-80
2021/12/30 05:10:50;;;;;;;131.15;53.28;;;;;;;0.81;96.30;99871.42;1729238;82;27359;-80
2021/12/30 05:13:17;;;;;;;141.57;55.65;;;;;;;0.82;96.44;99874.37;1728853;83;25292;-80
2021/12/30 05:15:47;;;;;;;136.85;55.80;;;;;;;0.82;96.44;99882.36;1702883;83;25650;-79
2021/12/30 05:18:15;;;;;;;144.07;56.98;;;;;;;0.85;96.49;99878.37;1729488;83;25807;-80
2021/12/30 05:20:43;;;;;;;136.50;53.70;;;;;;;0.85;96.50;99874.38;1729607;83;25622;-81
2021/12/30 05:23:10;;;;;;;136.88;54.67;;;;;;;0.85;96.40;99893.02;1729018;83;27417;-82
2021/12/30 05:25:37;;;;;;;138.77;55.83;;;;;;;0.85;96.39;99897.83;1720689;81;25737;-81
2021/12/30 05:28:04;;;;;;;147.93;54.83;;;;;;;0.86;96.51;99898.09;1762643;81;25211;-81
2021/12/30 05:30:31;;;;;;;146.22;56.45;;;;;;;0.87;96.48;99901.03;1762586;81;25618;-81
2021/12/30 05:32:57;;;;;;;144.22;56.05;;;;;;;0.89;96.53;99902.12;1762335;81;25259;-81
2021/12/30 05:35:25;;;;;;;136.12;55.03;;;;;;;0.90;96.58;99900.53;1761851;81;28308;-81
2021/12/30 05:37:51;;;;;;;133.60;56.30;;;;;;;0.90;96.55;99894.38;1761512;81;25656;-81
2021/12/30 05:40:21;;;;;;;140.95;55.65;;;;;;;0.91;96.61;99883.48;1762018;80;25564;-78
2021/12/30 05:42:48;;;;;;;140.95;54.25;;;;;;;0.93;96.68;99869.91;1761535;81;25678;-79
2021/12/30 05:45:16;;;;;;;145.05;55.50;;;;;;;0.93;96.62;99868.58;1761370;81;25631;-79
2021/12/30 05:47:46;;;;;;;150.53;56.02;;;;;;;0.95;96.68;99865.67;1761139;81;27383;-80
2021/12/30 05:50:15;;;;;;;;;;;;;;;0.95;96.68;99866.46;1763164;81;25672;-81
2021/12/30 05:52:41;;;;;;;134.47;53.33;;;;;;;0.96;96.68;99874.73;1761077;81;25429;-81
2021/12/30 05:55:09;;;;;;;146.60;57.33;;;;;;;0.97;96.70;99883.02;1761488;81;25594;-81
2021/12/30 05:57:35;;;;;;;142.90;56.02;;;;;;;1.00;96.67;99889.67;1761391;81;25457;-81
2021/12/30 06:00:06;;;;;;;135.03;53.05;;;;;;;1.01;96.66;99897.41;1761325;81;27302;-81
2021/12/30 06:02:33;;;;;;;140.62;53.78;;;;;;;1.01;96.60;99898.75;1761219;81;25745;-82
2021/12/30 06:04:59;;;;;;;150.78;56.50;;;;;;;1.04;96.67;99914.73;1761271;81;25477;-81
2021/12/30 06:07:26;;;;;;;140.68;55.17;;;;;;;1.05;96.65;99923.01;1761370;81;25626;-81
2021/12/30 06:09:53;;;;;;;142.95;55.55;;;;;;;1.06;96.79;99928.62;1732217;81;25654;-81
2021/12/30 06:12:19;;;;;;;149.80;56.28;;;;;;;1.04;96.73;99927.54;1761370;81;27336;-81
2021/12/30 06:14:46;;;;;;;138.80;53.15;;;;;;;1.06;96.69;99940.61;1761131;81;25382;-77
2021/12/30 06:17:14;;;;;;;140.35;52.67;;;;;;;1.05;96.74;99937.66;1762304;81;25372;-78
2021/12/30 06:19:42;;;;;;;144.20;55.28;;;;;;;1.05;96.72;99941.12;1762170;81;25556;-80
2021/12/30 06:22:12;;;;;;;136.75;55.33;;;;;;;1.06;96.92;99944.61;1762058;81;25536;-80
2021/12/30 06:24:39;;;;;;;147.98;55.58;;;;;;;1.06;96.75;99947.27;1761985;81;27338;-79
2021/12/30 06:27:07;;;;;;;137.25;54.03;;;;;;;1.06;96.74;99954.72;1762759;81;25617;-80
2021/12/30 06:29:34;;;;;;;145.40;55.33;;;;;;;1.05;96.69;99958.97;1762908;81;25182;-80
2021/12/30 06:32:02;;;;;;;139.12;53.80;;;;;;;1.04;96.86;99960.84;1762983;81;25696;-80
2021/12/30 06:34:28;;;;;;;139.57;53.42;;;;;;;1.04;96.84;99955.52;1763285;81;25214;-80
2021/12/30 06:36:55;;;;;;;146.05;53.65;;;;;;;1.04;96.82;99966.17;1763222;81;27870;-80
2021/12/30 06:39:22;;;;;;;143.55;53.95;;;;;;;1.05;96.83;99970.95;1763083;81;25461;-80
2021/12/30 06:41:50;;;;;;;144.80;54.42;;;;;;;1.04;96.84;99968.00;1763326;81;25369;-80
2021/12/30 06:44:17;;;;;;;128.80;54.73;;;;;;;1.04;96.85;99971.49;1763022;81;25657;-80
2021/12/30 06:46:52;;;;;;;135.35;53.75;;;;;;;1.05;96.92;99970.95;1763039;81;25203;-79
2021/12/30 06:49:13;;;;;;;140.07;54.55;;;;;;;1.05;96.87;99967.75;1762959;81;28263;-80
2021/12/30 06:51:41;;;;;;;;;;;;;;;1.07;96.92;99963.50;1765328;81;25720;-80
2021/12/30 06:54:08;;;;;;;132.37;52.53;;;;;;;1.05;96.94;99953.11;1762692;81;25400;-81
2021/12/30 06:56:35;;;;;;;147.82;54.13;;;;;;;1.03;96.91;99955.22;1762438;81;25617;-80
2021/12/30 06:59:03;;;;;;;149.62;52.93;;;;;;;1.05;96.98;99957.09;1761783;81;25453;-80
2021/12/30 07:01:30;;;;;;;138.28;52.90;;;;;;;1.06;97.02;99959.26;1762317;81;27324;-80
2021/12/30 07:03:58;;;;;;;131.00;53.55;;;;;;;1.07;97.13;99965.66;1762397;81;25661;-80
2021/12/30 07:06:25;;;;;;;139.10;53.23;;;;;;;1.10;97.17;99963.80;1762467;81;25457;-80
2021/12/30 07:08:52;;;;;;;129.53;51.90;;;;;;;1.10;97.08;99979.78;1762522;81;25601;-79
2021/12/30 07:11:20;;;;;;;136.92;52.67;;;;;;;1.10;97.07;99986.98;1762654;81;25583;-79
2021/12/30 07:13:47;;;;;;;131.67;52.55;;;;;;;1.11;97.11;99976.61;1761906;81;27958;-81
2021/12/30 07:16:13;;;;;;;134.32;54.60;;;;;;;1.13;97.05;99983.02;1736141;81;25696;-81
2021/12/30 07:18:40;;;;;;;127.30;49.90;;;;;;;1.13;97.11;99984.35;1762419;79;25458;-80
2021/12/30 07:21:07;;;;;;;139.97;53.68;;;;;;;1.14;97.18;99983.28;1762005;81;25696;-81
2021/12/30 07:23:34;;;;;;;130.45;51.18;;;;;;;1.16;97.28;99979.83;1762360;81;25625;-79
2021/12/30 07:26:02;;;;;;;140.65;49.38;;;;;;;1.16;97.33;99984.65;1762260;80;27323;-80
2021/12/30 07:28:28;;;;;;;128.47;49.85;;;;;;;1.19;97.42;99984.66;1734718;81;25407;-80
2021/12/30 07:30:55;;;;;;;124.72;49.85;;;;;;;1.22;97.54;99978.28;1761914;81;25548;-80
2021/12/30 07:33:22;;;;;;;130.85;50.58;;;;;;;1.25;97.54;99975.12;1762245;81;25608;-81
2021/12/30 07:35:48;;;;;;;128.30;49.30;;;;;;;1.27;97.58;99977.53;1762548;81;25369;-81
2021/12/30 07:38:15;;;;;;;117.00;49.45;;;;;;;1.27;97.55;99982.32;1762614;81;27957;-80
2021/12/30 07:40:41;;;;;;;128.20;50.85;;;;;;;1.32;97.64;99986.10;1761214;81;25635;-80
2021/12/30 07:43:08;;;;;;;115.72;49.05;;;;;;;1.33;97.63;99987.69;1762350;81;25399;-80
2021/12/30 07:45:34;;;;;;;122.28;47.73;;;;;;;1.33;97.65;99981.85;1761952;81;25700;-80
2021/12/30 07:48:01;;;;;;;121.47;47.95;;;;;;;1.36;97.63;99976.53;1762561;81;25601;-79
2021/12/30 07:50:27;;;;;;;109.80;46.33;;;;;;;1.38;97.73;99979.73;1761270;81;27257;-80
2021/12/30 07:52:54;;;;;;;115.65;47.05;;;;;;;1.41;97.78;99983.23;1761571;81;25672;-79
2021/12/30 07:55:21;;;;;;;125.67;46.13;;;;;;;1.41;97.71;99988.02;1732746;81;25448;-80
2021/12/30 07:57:47;;;;;;;125.07;49.20;;;;;;;1.42;97.60;99989.64;1732981;81;26304;-79
2021/12/30 08:00:17;;;;;;;111.45;46.40;;;;;;;1.44;97.66;99992.84;1761443;81;25636;-79
2021/12/30 08:02:44;;;;;;;118.42;48.42;;;;;;;1.46;97.67;99988.09;1761560;81;27382;-79
2021/12/30 08:05:15;;;;;;;122.47;46.92;;;;;;;1.47;97.65;99990.22;1761197;81;25463;-79
2021/12/30 08:07:45;;;;;;;112.80;45.55;;;;;;;1.49;97.73;99991.55;1761030;81;25611;-79
2021/12/30 08:10:14;;;;;;;115.92;47.43;;;;;;;1.51;97.90;99980.63;1761003;81;26068;-79
2021/12/30 08:12:41;;;;;;;106.83;45.85;;;;;;;1.53;97.90;99978.51;1733799;81;25835;-79
2021/12/30 08:15:08;;;;;;;113.72;45.12;;;;;;;1.56;97.96;99971.88;1761071;81;27979;-79
2021/12/30 08:17:36;;;;;;;110.37;43.35;;;;;;;1.57;98.05;99975.63;1761581;81;25627;-78
2021/12/30 08:20:08;;;;;;;105.15;43.23;;;;;;;1.60;98.15;99992.45;1760581;81;25422;-77
2021/12/30 08:22:36;;;;;;;95.42;40.58;;;;;;;1.62;98.11;99992.98;1733439;81;25632;-78
2021/12/30 08:25:06;;;;;;;101.90;42.80;;;;;;;1.64;98.09;99990.86;1763118;81;25650;-77
2021/12/30 08:27:33;;;;;;;98.07;43.73;;;;;;;1.64;98.14;99992.73;1731907;81;27359;-78
2021/12/30 08:30:00;;;;;;;103.07;42.40;;;;;;;1.68;98.15;99998.61;1729571;82;25316;-77
2021/12/30 08:32:27;;;;;;;99.35;43.25;;;;;;;1.71;98.13;100008.51;1728033;83;25213;-78
2021/12/30 08:34:53;;;;;;;115.52;45.48;;;;;;;1.74;98.13;100007.97;1727329;83;25762;-78
2021/12/30 08:37:20;;;;;;;110.10;45.15;;;;;;;1.76;98.19;100005.33;1727255;83;25592;-78
2021/12/30 08:39:47;;;;;;;108.57;45.92;;;;;;;1.80;98.36;100006.41;1727122;82;27333;-78
2021/12/30 08:42:24;;;;;;;110.75;44.05;;;;;;;1.84;98.40;100006.73;1727669;82;25250;-78
2021/12/30 08:44:55;;;;;;;112.00;45.43;;;;;;;1.85;98.24;99998.44;1727717;83;25452;-77
2021/12/30 08:47:22;;;;;;;102.15;43.08;;;;;;;1.90;98.29;100005.68;1725964;83;25605;-77
2021/12/30 08:49:49;;;;;;;102.70;43.98;;;;;;;1.94;98.26;100003.30;1709850;82;25335;-78
2021/12/30 08:52:21;;;;;;;102.90;43.38;;;;;;;1.96;98.22;100008.66;1708877;82;27282;-79
2021/12/30 08:54:49;;;;;;;112.47;42.60;;;;;;;2.01;98.28;100009.20;1733576;82;25635;-78
2021/12/30 08:57:17;;;;;;;93.25;42.38;;;;;;;2.01;98.14;100007.35;1735298;81;25751;-77
2021/12/30 08:59:44;;;;;;;96.35;41.77;;;;;;;2.04;98.20;100010.84;1734463;82;25748;-78
2021/12/30 09:02:11;;;;;;;99.47;41.73;;;;;;;2.06;98.21;100003.92;1708700;82;25758;-78
2021/12/30 09:04:42;;;;;;;92.37;42.93;;;;;;;2.08;98.12;100014.30;1734017;82;27965;-78
2021/12/30 09:07:07;;;;;;;97.65;42.25;;;;;;;2.12;98.23;100004.20;1732098;82;26282;-78
2021/12/30 09:09:33;;;;;;;98.03;43.05;;;;;;;2.13;98.21;100000.48;1732923;82;25614;-78
2021/12/30 09:12:00;;;;;;;93.37;42.83;;;;;;;2.18;98.32;100000.50;1733497;81;26123;-78
2021/12/30 09:14:26;;;;;;;87.72;41.58;;;;;;;2.23;98.50;99999.19;1707274;82;25812;-78
2021/12/30 09:16:56;;;;;;;92.00;40.60;;;;;;;2.27;98.28;100004.80;1732477;81;27375;-78
2021/12/30 09:19:22;;;;;;;88.22;42.62;;;;;;;2.27;98.06;100002.67;1733331;82;34911;-78
2021/12/30 09:21:49;;;;;;;96.32;42.03;;;;;;;2.26;97.99;99995.18;1736395;82;25387;-78
2021/12/30 09:24:16;;;;;;;91.87;42.43;;;;;;;2.27;97.83;100000.01;1735233;82;25728;-79
2021/12/30 09:26:42;;;;;;;85.32;39.33;;;;;;;2.29;97.97;99998.67;1737977;82;25220;-79
2021/12/30 09:29:12;;;;;;;92.97;42.98;;;;;;;2.31;97.92;99987.73;1734914;82;27419;-79
2021/12/30 09:31:44;;;;;;;84.40;40.85;;;;;;;2.33;97.88;99990.94;1731924;81;34716;-79
2021/12/30 09:34:11;;;;;;;90.22;39.40;;;;;;;2.33;97.84;99982.93;1730990;82;25620;-78
2021/12/30 09:36:38;;;;;;;90.00;40.73;;;;;;;2.34;97.83;99984.01;1725926;81;26593;-78
2021/12/30 09:39:11;;;;;;;93.92;42.25;;;;;;;2.35;97.87;99978.95;1732976;82;30551;-78
2021/12/30 09:41:43;;;;;;;92.65;41.92;;;;;;;2.36;97.89;99967.19;1735042;82;28285;-77
2021/12/30 09:44:11;;;;;;;90.47;39.65;;;;;;;2.37;97.87;99973.36;1737271;81;25770;-78
2021/12/30 09:46:42;;;;;;;93.07;41.55;;;;;;;2.39;97.90;99977.89;1737641;81;25602;-78
2021/12/30 09:49:13;;;;;;;97.47;41.85;;;;;;;2.39;97.88;99972.55;1738039;82;25634;-78
2021/12/30 09:51:45;;;;;;;90.65;42.48;;;;;;;2.39;97.83;99976.56;1738027;82;25623;-78
2021/12/30 09:54:12;;;;;;;93.05;42.20;;;;;;;2.41;97.92;99982.43;1737769;82;27352;-79
2021/12/30 09:56:39;;;;;;;94.87;41.40;;;;;;;2.40;97.85;99973.62;1739494;81;25181;-79
2021/12/30 09:59:07;;;;;;;91.05;41.88;;;;;;;2.41;97.87;99970.42;1738725;82;25581;-78
2021/12/30 10:01:37;;;;;;;95.42;41.75;;;;;;;2.40;97.89;99968.80;1738994;81;25684;-79
2021/12/30 10:04:05;;;;;;;89.13;41.05;;;;;;;2.41;97.97;99965.08;1738911;81;25234;-80
2021/12/30 10:06:33;;;;;;;96.47;43.87;;;;;;;2.39;97.88;99966.67;1738371;82;27568;-80
2021/12/30 10:09:11;;;;;;;98.42;45.40;;;;;;;2.41;98.04;99960.53;1713913;82;25704;-80
2021/12/30 10:11:52;;;;;;;97.55;43.75;;;;;;;2.41;98.12;99955.73;1739165;81;25466;-79
2021/12/30 10:14:36;;;;;;;92.97;42.80;;;;;;;2.42;98.08;99954.14;1739353;82;25630;-79
2021/12/30 10:17:23;;;;;;;104.45;43.02;;;;;;;2.42;98.22;99952.02;1739131;81;25620;-79
2021/12/30 10:19:52;;;;;;;99.90;42.73;;;;;;;2.43;98.34;99949.59;1738788;82;27335;-79
2021/12/30 10:22:24;;;;;;;99.80;43.90;;;;;;;2.47;98.51;99948.02;1739060;82;25300;-78
2021/12/30 10:24:52;;;;;;;98.42;43.65;;;;;;;2.46;98.52;99949.08;1739551;81;25719;-80
2021/12/30 10:27:34;;;;;;;98.70;42.40;;;;;;;2.50;98.53;99948.02;1739573;82;25618;-80
2021/12/30 10:30:01;;;;;;;103.27;45.38;;;;;;;2.53;98.73;99948.83;1724404;82;25415;-78
2021/12/30 10:32:29;;;;;;;98.75;43.95;;;;;;;2.54;98.62;99945.11;1704923;84;27346;-80
2021/12/30 10:35:12;;;;;;;96.65;44.73;;;;;;;2.55;98.65;99953.37;1763749;80;25240;-80
2021/12/30 10:37:46;;;;;;;96.37;42.25;;;;;;;2.56;98.60;99946.97;1759069;80;25688;-79
2021/12/30 10:40:29;;;;;;;95.87;43.90;;;;;;;2.56;98.62;99940.30;1761098;81;25688;-81
2021/12/30 10:43:29;;;;;;;96.00;43.30;;;;;;;2.56;98.64;99938.96;1746437;82;25617;-82
2021/12/30 10:46:28;;;;;;;92.40;42.00;;;;;;;2.56;98.69;99938.96;1745960;81;28104;-81
2021/12/30 10:49:09;;;;;;;95.70;41.90;;;;;;;2.55;98.61;99939.47;1717169;81;25355;-83
2021/12/30 10:51:43;;;;;;;88.10;40.83;;;;;;;2.54;98.64;99934.42;1716674;83;25710;-80
2021/12/30 10:54:35;;;;;;;103.72;44.53;;;;;;;2.56;98.71;99932.28;1716481;83;25624;-80
2021/12/30 10:57:08;;;;;;;100.02;42.70;;;;;;;2.57;98.86;99932.53;1716602;83;25466;-81
2021/12/30 10:59:42;;;;;;;95.72;44.15;;;;;;;2.58;98.93;99930.94;1716643;83;27329;-81
2021/12/30 11:02:17;;;;;;;94.77;42.62;;;;;;;2.60;98.92;99937.35;1716600;83;25778;-80
2021/12/30 11:04:49;;;;;;;100.67;45.88;;;;;;;2.61;98.96;99934.97;1715691;83;25591;-80
2021/12/30 11:07:25;;;;;;;105.78;44.95;;;;;;;2.63;99.05;99936.83;1692287;83;25708;-81
2021/12/30 11:09:58;;;;;;;110.48;47.65;;;;;;;2.63;98.90;99944.84;1716663;83;25594;-80
2021/12/30 11:12:34;;;;;;;103.58;45.60;;;;;;;2.64;98.94;99946.97;1716805;83;27383;-80
2021/12/30 11:15:05;;;;;;;99.20;45.00;;;;;;;2.63;98.94;99946.18;1664005;85;26634;-82
2021/12/30 11:17:34;;;;;;;105.70;47.10;;;;;;;2.64;99.01;99940.30;1687043;85;25699;-79
2021/12/30 11:20:06;;;;;;;108.30;45.98;;;;;;;2.66;99.06;99942.19;1686850;83;26406;-81
2021/12/30 11:22:35;;;;;;;107.00;46.58;;;;;;;2.68;99.12;99933.37;1664335;85;25703;-81
2021/12/30 11:25:06;;;;;;;109.47;45.97;;;;;;;2.68;98.98;99928.83;1687002;85;27506;-80